X  Luk Metar data     KSDL Scottsdale Airport
Temperatur
75°F Temperatur
43°F Duggpunkt
31% Fugtighed



Vind
0 MPT
0 KM/T
0 M/S
0 KNOB



Stille
Nord
Nuværende forhold

Klart Klart
Tryk 1020.02 (hPa) - 30.12 (inHg)
Sigt 9.9 (mil) - 16 (km)
Lufthavn
Lufthavnskode KSDL

Lokation: Scottsdale Airport
Afstand: 14 (mi)

Metar:
KSDL 221253Z 00000KT 10SM CLR 24/06 A3012 RMK AO2 SLP172 T02390061

Tid: 2021-09-22 05:53 MST